createdAt,value
2022-09-07T00:01:08.415Z,20.10
2022-09-07T00:03:36.897Z,20.00
2022-09-07T00:06:07.793Z,20.10
2022-09-07T00:08:36.111Z,20.10
2022-09-07T00:11:07.231Z,20.10
2022-09-07T00:13:39.078Z,20.10
2022-09-07T00:16:08.865Z,20.10
2022-09-07T00:18:42.400Z,20.10
2022-09-07T00:21:16.103Z,20.10
2022-09-07T00:23:44.760Z,20.10
2022-09-07T00:26:14.768Z,20.10
2022-09-07T00:28:44.507Z,20.10
2022-09-07T00:31:14.924Z,20.10
2022-09-07T00:33:43.459Z,20.20
2022-09-07T00:36:12.159Z,20.20
2022-09-07T00:38:40.377Z,20.20
2022-09-07T00:41:08.864Z,20.30
2022-09-07T00:43:38.709Z,20.30
2022-09-07T00:46:13.813Z,20.30
2022-09-07T00:48:46.763Z,20.30
2022-09-07T00:51:19.388Z,20.40
2022-09-07T00:53:54.351Z,20.40
2022-09-07T00:56:24.593Z,20.50
2022-09-07T00:58:55.753Z,20.50
2022-09-07T01:01:25.393Z,20.50
2022-09-07T01:03:56.182Z,20.50
2022-09-07T01:06:28.062Z,20.60
2022-09-07T01:09:00.940Z,20.70
2022-09-07T01:11:30.113Z,20.80
2022-09-07T01:13:58.690Z,20.80
2022-09-07T01:16:42.962Z,20.90
2022-09-07T01:19:35.838Z,20.90
2022-09-07T01:22:16.402Z,20.90
2022-09-07T01:24:55.289Z,20.90
2022-09-07T01:28:02.208Z,21.00
2022-09-07T01:30:35.366Z,21.00
2022-09-07T01:33:31.169Z,21.10
2022-09-07T01:36:11.512Z,21.20
2022-09-07T01:38:43.078Z,21.10
2022-09-07T01:41:17.802Z,21.10
2022-09-07T01:43:52.387Z,21.10
2022-09-07T01:46:27.749Z,21.10
2022-09-07T01:49:00.926Z,21.10
2022-09-07T01:51:33.141Z,21.10
2022-09-07T01:54:08.071Z,21.00
2022-09-07T01:56:41.452Z,21.00
2022-09-07T01:59:15.814Z,20.90
2022-09-07T02:01:51.206Z,20.80
2022-09-07T02:04:22.416Z,20.70
2022-09-07T02:06:55.011Z,20.60
2022-09-07T02:09:30.150Z,20.60
2022-09-07T02:12:03.057Z,20.50
2022-09-07T02:14:37.217Z,20.50
2022-09-07T02:17:13.542Z,20.40
2022-09-07T02:19:48.197Z,20.40
2022-09-07T02:22:22.176Z,20.30
2022-09-07T02:24:54.326Z,20.20
2022-09-07T02:27:28.460Z,20.10
2022-09-07T02:29:56.785Z,20.00
2022-09-07T02:32:26.397Z,19.90
2022-09-07T02:34:54.519Z,19.80
2022-09-07T02:37:23.246Z,19.70
2022-09-07T02:39:51.493Z,19.60
2022-09-07T02:42:19.801Z,19.50
2022-09-07T02:44:49.054Z,19.50
2022-09-07T02:47:27.829Z,19.40
2022-09-07T02:50:23.852Z,19.30
2022-09-07T02:53:01.333Z,19.30
2022-09-07T02:55:38.956Z,19.10
2022-09-07T02:58:18.669Z,19.00
2022-09-07T03:00:54.025Z,18.80
2022-09-07T03:03:26.926Z,18.60
2022-09-07T03:06:01.802Z,18.50
2022-09-07T03:08:35.656Z,18.50
2022-09-07T03:11:06.111Z,18.40
2022-09-07T03:13:34.735Z,18.20
2022-09-07T03:16:03.169Z,18.10
2022-09-07T03:18:32.793Z,18.00
2022-09-07T03:21:00.977Z,18.00
2022-09-07T03:23:31.799Z,17.90
2022-09-07T03:25:59.906Z,17.80
2022-09-07T03:28:28.026Z,17.70
2022-09-07T03:30:56.349Z,17.70
2022-09-07T03:33:24.511Z,17.70
2022-09-07T03:36:00.560Z,17.60
2022-09-07T03:38:28.830Z,17.60
2022-09-07T03:41:01.350Z,17.60
2022-09-07T03:43:29.917Z,17.60
2022-09-07T03:45:59.260Z,17.60
2022-09-07T03:48:27.679Z,17.60
2022-09-07T03:51:01.951Z,17.50
2022-09-07T03:53:32.713Z,17.50
2022-09-07T03:56:02.677Z,17.40
2022-09-07T03:58:32.051Z,17.40
2022-09-07T04:01:01.505Z,17.40
2022-09-07T04:03:30.143Z,17.30
2022-09-07T04:06:01.437Z,17.30
2022-09-07T04:08:33.442Z,17.30
2022-09-07T04:11:02.948Z,17.30
2022-09-07T04:13:31.862Z,17.30
2022-09-07T04:15:59.952Z,17.30
2022-09-07T04:18:28.131Z,17.40
2022-09-07T04:21:01.343Z,17.40
2022-09-07T04:23:29.497Z,17.40
2022-09-07T04:25:57.639Z,17.40
2022-09-07T04:28:25.768Z,17.40
2022-09-07T04:30:54.061Z,17.40
2022-09-07T04:33:22.951Z,17.40
2022-09-07T04:35:51.071Z,17.40
2022-09-07T04:38:20.613Z,17.30
2022-09-07T04:40:48.723Z,17.30
2022-09-07T04:43:16.821Z,17.20
2022-09-07T04:45:44.912Z,17.30
2022-09-07T04:48:13.044Z,17.30
2022-09-07T04:50:41.381Z,17.30
2022-09-07T04:53:09.459Z,17.30
2022-09-07T04:55:38.885Z,17.30
2022-09-07T04:58:07.199Z,17.30
2022-09-07T05:00:35.793Z,17.30
2022-09-07T05:03:03.842Z,17.20
2022-09-07T05:05:31.936Z,17.20
2022-09-07T05:08:00.040Z,17.20
2022-09-07T05:10:28.165Z,17.10
2022-09-07T05:12:58.133Z,17.10
2022-09-07T05:15:26.561Z,17.00
2022-09-07T05:17:54.787Z,17.10
2022-09-07T05:20:23.050Z,17.00
2022-09-07T05:22:59.446Z,17.10
2022-09-07T05:25:29.225Z,17.00
2022-09-07T05:27:58.962Z,17.00
2022-09-07T05:33:15.259Z,17.00
2022-09-07T05:35:43.341Z,17.00
2022-09-07T05:38:11.424Z,17.00
2022-09-07T05:40:40.817Z,17.10
2022-09-07T05:43:10.652Z,17.10
2022-09-07T05:45:38.800Z,17.20
2022-09-07T05:48:06.962Z,17.20
2022-09-07T05:50:37.859Z,17.20
2022-09-07T05:53:05.962Z,17.30
2022-09-07T05:55:34.081Z,17.30
2022-09-07T05:58:02.209Z,17.30
2022-09-07T06:00:31.796Z,17.40
2022-09-07T06:03:00.162Z,17.40
2022-09-07T06:05:28.475Z,17.50
2022-09-07T06:07:56.568Z,17.60
2022-09-07T06:13:13.989Z,17.70
2022-09-07T06:15:43.444Z,17.80
2022-09-07T06:18:11.588Z,17.80
2022-09-07T06:20:39.669Z,17.90
2022-09-07T06:23:08.361Z,17.90
2022-09-07T06:25:36.464Z,18.00
2022-09-07T06:28:04.947Z,18.00
2022-09-07T06:30:33.835Z,18.10
2022-09-07T06:33:03.282Z,18.10
2022-09-07T06:35:31.409Z,18.10
2022-09-07T06:37:59.494Z,18.20
2022-09-07T06:40:27.579Z,18.30
2022-09-07T06:42:55.715Z,18.30
2022-09-07T06:45:23.845Z,18.40
2022-09-07T06:47:55.297Z,18.40
2022-09-07T06:50:27.733Z,18.50
2022-09-07T06:55:45.226Z,18.80
2022-09-07T06:58:13.284Z,18.80
2022-09-07T07:00:41.444Z,18.90
2022-09-07T07:03:09.729Z,19.00
2022-09-07T07:05:39.437Z,19.00
2022-09-07T07:08:07.682Z,19.00
2022-09-07T07:10:40.079Z,19.00
2022-09-07T07:13:08.166Z,19.10
2022-09-07T07:15:36.272Z,19.20
2022-09-07T07:18:19.942Z,19.30
2022-09-07T07:20:50.528Z,19.50
2022-09-07T07:23:18.633Z,19.50
2022-09-07T07:25:47.072Z,19.60
2022-09-07T07:31:09.469Z,19.80
2022-09-07T07:33:40.278Z,19.90
2022-09-07T07:36:12.307Z,19.90
2022-09-07T07:44:17.371Z,20.00
2022-09-07T07:46:48.876Z,20.00
2022-09-07T07:49:17.164Z,20.10
2022-09-07T07:54:36.826Z,20.10
2022-09-07T07:57:05.308Z,20.20
2022-09-07T07:59:33.389Z,20.40
2022-09-07T08:02:04.526Z,20.70
2022-09-07T08:04:33.677Z,20.90
2022-09-07T08:07:09.688Z,21.10
2022-09-07T08:09:39.984Z,21.20
2022-09-07T08:12:08.307Z,21.40
2022-09-07T08:14:40.805Z,21.60
2022-09-07T08:17:09.992Z,21.80
2022-09-07T08:19:38.200Z,21.90
2022-09-07T08:22:07.898Z,22.20
2022-09-07T08:24:36.361Z,22.30
2022-09-07T08:27:04.768Z,22.50
2022-09-07T08:29:35.160Z,22.70
2022-09-07T08:32:05.014Z,22.80
2022-09-07T08:34:35.389Z,23.00
2022-09-07T08:37:03.371Z,23.10
2022-09-07T08:39:32.904Z,23.30
2022-09-07T08:42:23.501Z,23.40
2022-09-07T08:44:58.919Z,23.70
2022-09-07T08:47:33.268Z,23.80
2022-09-07T08:50:09.077Z,23.90
2022-09-07T08:52:45.612Z,24.00
2022-09-07T08:55:18.863Z,24.00
2022-09-07T08:57:51.686Z,23.90
2022-09-07T09:00:20.550Z,23.80
2022-09-07T09:03:28.638Z,23.80
2022-09-07T09:05:46.018Z,24.00
2022-09-07T09:08:38.004Z,24.40
2022-09-07T09:11:11.695Z,24.80
2022-09-07T09:13:59.759Z,25.10
2022-09-07T09:16:35.134Z,25.60
2022-09-07T09:19:31.151Z,26.10
2022-09-07T09:22:10.849Z,26.40
2022-09-07T09:24:42.134Z,26.30
2022-09-07T09:27:11.817Z,26.00
2022-09-07T09:29:40.050Z,25.80
2022-09-07T09:32:35.147Z,25.60
2022-09-07T09:35:07.271Z,25.40
2022-09-07T09:37:37.392Z,25.50
2022-09-07T09:40:07.427Z,25.80
2022-09-07T09:42:38.846Z,26.10
2022-09-07T09:45:16.767Z,26.30
2022-09-07T09:47:50.737Z,26.50
2022-09-07T09:53:26.180Z,26.90
2022-09-07T09:55:55.620Z,27.10
2022-09-07T10:01:26.409Z,27.00
2022-09-07T10:03:56.181Z,27.10
2022-09-07T10:06:25.710Z,27.60
2022-09-07T10:08:57.943Z,27.30
2022-09-07T10:14:34.470Z,26.40
2022-09-07T10:17:11.310Z,27.10
2022-09-07T10:19:41.968Z,28.30
2022-09-07T10:22:24.914Z,29.20
2022-09-07T10:24:54.177Z,29.70
2022-09-07T10:27:31.737Z,30.20
2022-09-07T10:30:01.916Z,30.20
2022-09-07T10:32:51.184Z,29.20
2022-09-07T10:35:25.181Z,28.30
2022-09-07T10:38:00.560Z,27.50
2022-09-07T10:40:34.216Z,27.90
2022-09-07T10:43:21.526Z,28.30
2022-09-07T10:49:16.449Z,29.30
2022-09-07T10:51:55.203Z,29.90
2022-09-07T10:54:33.146Z,30.30
2022-09-07T10:57:10.284Z,30.40
2022-09-07T11:00:07.866Z,30.10
2022-09-07T11:05:56.009Z,29.40
2022-09-07T11:09:15.007Z,29.00
2022-09-07T11:14:20.651Z,27.60
2022-09-07T11:16:54.088Z,26.90
2022-09-07T11:19:36.933Z,26.60
2022-09-07T11:22:16.130Z,26.40
2022-09-07T11:25:29.117Z,26.40
2022-09-07T11:27:43.588Z,26.20
2022-09-07T11:30:20.762Z,26.10
2022-09-07T11:32:59.440Z,26.10
2022-09-07T11:35:39.894Z,26.10
2022-09-07T11:38:15.936Z,26.00
2022-09-07T11:40:51.689Z,25.90
2022-09-07T11:43:23.788Z,25.80
2022-09-07T11:45:55.785Z,25.80
2022-09-07T11:48:32.331Z,25.70
2022-09-07T11:51:05.658Z,25.70
2022-09-07T11:53:36.916Z,25.70
2022-09-07T11:56:08.507Z,25.60
2022-09-07T11:59:04.191Z,25.60
2022-09-07T12:01:41.303Z,25.50
2022-09-07T12:04:42.519Z,25.40
2022-09-07T12:07:38.140Z,25.50
2022-09-07T12:10:41.998Z,25.50
2022-09-07T12:13:33.175Z,25.60
2022-09-07T12:16:06.775Z,25.60
2022-09-07T12:18:53.852Z,25.60
2022-09-07T12:21:33.221Z,25.60
2022-09-07T12:24:02.743Z,25.50
2022-09-07T12:26:51.575Z,25.50
2022-09-07T12:29:25.062Z,25.60
2022-09-07T12:31:58.823Z,25.60
2022-09-07T12:34:52.432Z,25.50
2022-09-07T12:37:43.359Z,25.60
2022-09-07T12:40:59.674Z,25.70
2022-09-07T12:44:07.416Z,25.80
2022-09-07T12:46:51.711Z,26.00
2022-09-07T12:49:45.816Z,26.20
2022-09-07T12:52:51.828Z,26.40
2022-09-07T12:56:15.578Z,26.50
2022-09-07T12:58:37.128Z,26.40
2022-09-07T13:01:21.852Z,26.60
2022-09-07T13:04:27.969Z,26.70
2022-09-07T13:07:24.113Z,26.90
2022-09-07T13:09:57.662Z,27.00
2022-09-07T13:15:43.685Z,27.10
2022-09-07T13:18:39.659Z,27.20
2022-09-07T13:21:39.840Z,27.10
2022-09-07T13:24:53.077Z,27.10
2022-09-07T13:27:51.231Z,26.80
2022-09-07T13:30:31.355Z,26.60
2022-09-07T13:33:39.297Z,26.70
2022-09-07T13:36:24.176Z,26.90
2022-09-07T13:38:53.356Z,27.00
2022-09-07T13:41:24.471Z,26.90
2022-09-07T13:43:58.642Z,26.70
2022-09-07T13:46:48.990Z,26.50
2022-09-07T13:49:30.236Z,26.40
2022-09-07T13:52:06.801Z,26.20
2022-09-07T13:54:51.330Z,26.20
2022-09-07T13:57:27.025Z,26.20
2022-09-07T13:59:57.556Z,26.40
2022-09-07T14:02:28.559Z,26.60
2022-09-07T14:05:00.371Z,26.80
2022-09-07T14:07:32.042Z,27.10
2022-09-07T14:10:15.002Z,27.30
2022-09-07T14:12:46.124Z,27.60
2022-09-07T14:15:23.755Z,27.50
2022-09-07T14:18:03.187Z,27.80
2022-09-07T14:20:32.397Z,27.80
2022-09-07T14:23:02.172Z,27.40
2022-09-07T14:25:30.627Z,27.10
2022-09-07T14:28:32.311Z,26.80
2022-09-07T14:31:01.160Z,26.40
2022-09-07T14:33:30.483Z,26.10
2022-09-07T14:36:00.153Z,25.80
2022-09-07T14:41:22.161Z,25.60
2022-09-07T14:43:54.882Z,25.50
2022-09-07T14:46:26.358Z,25.60
2022-09-07T14:48:55.775Z,25.50
2022-09-07T14:51:35.048Z,25.60
2022-09-07T14:54:07.317Z,25.80
2022-09-07T14:56:36.973Z,26.00
2022-09-07T14:59:33.573Z,26.00
2022-09-07T15:02:37.804Z,25.90
2022-09-07T15:05:22.564Z,25.60
2022-09-07T15:07:53.030Z,25.40
2022-09-07T15:10:31.444Z,25.20
2022-09-07T15:13:01.317Z,25.00
2022-09-07T15:15:32.362Z,24.90
2022-09-07T15:18:08.194Z,25.00
2022-09-07T15:20:43.039Z,25.10
2022-09-07T15:23:13.396Z,25.20
2022-09-07T15:25:49.639Z,25.30
2022-09-07T15:34:03.132Z,25.40
2022-09-07T15:36:32.243Z,25.40
2022-09-07T15:39:01.287Z,25.30
2022-09-07T15:41:31.172Z,25.20
2022-09-07T15:44:00.249Z,25.10
2022-09-07T15:46:28.439Z,25.00
2022-09-07T15:48:57.376Z,24.90
2022-09-07T15:54:15.355Z,24.70
2022-09-07T15:57:48.304Z,24.60
2022-09-07T15:59:35.635Z,24.40
2022-09-07T16:02:03.834Z,24.40
2022-09-07T16:04:32.369Z,24.40
2022-09-07T16:07:01.969Z,24.20
2022-09-07T16:09:30.076Z,24.20
2022-09-07T16:13:00.050Z,24.20
2022-09-07T16:14:47.657Z,24.20
2022-09-07T16:20:04.793Z,24.20
2022-09-07T16:25:20.983Z,24.20
2022-09-07T16:27:50.372Z,24.20
2022-09-07T16:30:18.526Z,24.10
2022-09-07T16:32:46.744Z,24.00
2022-09-07T16:35:15.019Z,23.90
2022-09-07T16:40:31.715Z,23.70
2022-09-07T16:43:01.183Z,23.60
2022-09-07T16:48:17.624Z,23.50
2022-09-07T16:51:01.056Z,23.40
2022-09-07T16:53:30.301Z,23.30
2022-09-07T16:56:02.260Z,23.30
2022-09-07T16:58:36.740Z,23.30
2022-09-07T17:01:05.627Z,23.20
2022-09-07T17:03:33.876Z,23.20
2022-09-07T17:06:02.861Z,23.10
2022-09-07T17:08:31.105Z,23.10
2022-09-07T17:11:03.081Z,23.00
2022-09-07T17:13:34.409Z,23.00
2022-09-07T17:16:07.749Z,22.90
2022-09-07T17:21:26.292Z,22.80
2022-09-07T17:23:55.827Z,22.70
2022-09-07T17:26:27.295Z,22.70
2022-09-07T17:29:01.627Z,22.60
2022-09-07T17:34:22.406Z,22.40
2022-09-07T17:36:51.340Z,22.30
2022-09-07T17:39:20.097Z,22.20
2022-09-07T17:41:52.695Z,22.10
2022-09-07T17:44:23.354Z,22.00
2022-09-07T17:46:52.037Z,21.80
2022-09-07T17:49:20.154Z,21.70
2022-09-07T17:51:48.338Z,21.60
2022-09-07T17:54:18.081Z,21.60
2022-09-07T17:56:47.598Z,21.50
2022-09-07T18:02:05.407Z,21.40
2022-09-07T18:04:35.781Z,21.30
2022-09-07T18:07:04.629Z,21.20
2022-09-07T18:09:32.783Z,21.10
2022-09-07T18:12:00.865Z,21.10
2022-09-07T18:14:30.202Z,21.00
2022-09-07T18:16:58.313Z,21.00
2022-09-07T18:19:28.460Z,21.00
2022-09-07T18:21:56.658Z,21.00
2022-09-07T18:24:25.452Z,21.00
2022-09-07T18:26:54.956Z,21.00
2022-09-07T18:29:30.107Z,20.90
2022-09-07T18:32:00.216Z,20.90
2022-09-07T18:34:31.481Z,20.90
2022-09-07T18:37:00.342Z,20.90
2022-09-07T18:39:29.702Z,20.90
2022-09-07T18:41:57.902Z,20.80
2022-09-07T18:47:22.081Z,20.70
2022-09-07T18:49:54.685Z,20.60
2022-09-07T18:55:11.771Z,20.50
2022-09-07T18:57:40.074Z,20.50
2022-09-07T19:00:10.555Z,20.40
2022-09-07T19:02:38.923Z,20.30
2022-09-07T19:07:59.608Z,20.20
2022-09-07T19:10:27.929Z,20.10
2022-09-07T19:12:56.577Z,20.00
2022-09-07T19:15:24.886Z,19.90
2022-09-07T19:17:53.052Z,19.80
2022-09-07T19:20:22.589Z,19.70
2022-09-07T19:22:50.780Z,19.60
2022-09-07T19:25:19.439Z,19.50
2022-09-07T19:27:47.591Z,19.40
2022-09-07T19:30:17.527Z,19.30
2022-09-07T19:32:45.810Z,19.20
2022-09-07T19:35:13.931Z,19.20
2022-09-07T19:37:43.488Z,19.20
2022-09-07T19:40:15.932Z,19.10
2022-09-07T19:42:46.975Z,19.10
2022-09-07T19:45:15.862Z,19.00
2022-09-07T19:47:44.026Z,19.00
2022-09-07T19:50:12.207Z,19.00
2022-09-07T19:52:40.503Z,19.00
2022-09-07T19:55:13.976Z,19.00
2022-09-07T19:57:46.228Z,18.90
2022-09-07T20:00:15.368Z,19.00
2022-09-07T20:02:43.503Z,18.90
2022-09-07T20:05:11.833Z,18.80
2022-09-07T20:07:39.864Z,18.80
2022-09-07T20:10:10.389Z,18.80
2022-09-07T20:12:38.724Z,18.80
2022-09-07T20:15:07.713Z,18.70
2022-09-07T20:17:37.530Z,18.70
2022-09-07T20:20:08.958Z,18.60
2022-09-07T20:22:37.769Z,18.60
2022-09-07T20:25:10.223Z,18.50
2022-09-07T20:27:43.076Z,18.50
2022-09-07T20:30:13.361Z,18.50
2022-09-07T20:32:41.449Z,18.40
2022-09-07T20:35:11.203Z,18.40
2022-09-07T20:37:39.267Z,18.30
2022-09-07T20:40:08.577Z,18.40
2022-09-07T20:42:36.742Z,18.30
2022-09-07T20:45:09.755Z,18.30
2022-09-07T20:47:38.109Z,18.30
2022-09-07T20:50:07.228Z,18.30
2022-09-07T20:52:35.280Z,18.30
2022-09-07T20:55:03.273Z,18.20
2022-09-07T20:57:31.541Z,18.20
2022-09-07T20:59:59.615Z,18.20
2022-09-07T21:02:29.361Z,18.20
2022-09-07T21:04:57.548Z,18.10
2022-09-07T21:07:25.687Z,18.00
2022-09-07T21:09:53.627Z,18.00
2022-09-07T21:12:21.690Z,18.00
2022-09-07T21:14:49.763Z,18.00
2022-09-07T21:17:17.885Z,17.90
2022-09-07T21:19:47.370Z,18.00
2022-09-07T21:22:15.637Z,17.90
2022-09-07T21:24:43.776Z,17.90
2022-09-07T21:27:12.067Z,17.90
2022-09-07T21:29:40.132Z,17.90
2022-09-07T21:32:08.147Z,17.90
2022-09-07T21:34:36.278Z,17.90
2022-09-07T21:37:05.742Z,17.90
2022-09-07T21:39:33.860Z,17.80
2022-09-07T21:42:01.827Z,17.70
2022-09-07T21:44:29.866Z,17.70
2022-09-07T21:46:58.212Z,17.60
2022-09-07T21:49:26.299Z,17.60
2022-09-07T21:51:54.623Z,17.60
2022-09-07T21:54:24.050Z,17.60
2022-09-07T21:56:53.224Z,17.60
2022-09-07T21:59:21.198Z,17.60
2022-09-07T22:01:49.407Z,17.60
2022-09-07T22:04:17.547Z,17.60
2022-09-07T22:06:45.590Z,17.60
2022-09-07T22:09:13.736Z,17.60
2022-09-07T22:11:46.045Z,17.60
2022-09-07T22:14:15.710Z,17.40
2022-09-07T22:16:43.713Z,17.40
2022-09-07T22:19:11.839Z,17.30
2022-09-07T22:21:40.543Z,17.30
2022-09-07T22:24:08.835Z,17.20
2022-09-07T22:26:38.372Z,17.20
2022-09-07T22:29:09.406Z,17.20
2022-09-07T22:31:39.989Z,17.20
2022-09-07T22:34:09.445Z,17.20
2022-09-07T22:36:39.762Z,17.10
2022-09-07T22:39:11.384Z,16.90
2022-09-07T22:41:40.811Z,16.90
2022-09-07T22:44:13.259Z,16.80
2022-09-07T22:46:43.432Z,16.90
2022-09-07T22:49:12.912Z,16.80
2022-09-07T22:51:40.983Z,16.80
2022-09-07T22:54:09.349Z,16.70
2022-09-07T22:56:38.279Z,16.70
2022-09-07T22:59:08.457Z,16.70
2022-09-07T23:01:38.517Z,16.60
2022-09-07T23:04:06.801Z,16.60
2022-09-07T23:06:36.577Z,16.60
2022-09-07T23:09:06.754Z,16.60
2022-09-07T23:11:34.872Z,16.50
2022-09-07T23:14:05.007Z,16.50
2022-09-07T23:16:33.132Z,16.50
2022-09-07T23:19:02.688Z,16.40
2022-09-07T23:21:33.627Z,16.40
2022-09-07T23:24:02.024Z,16.30
2022-09-07T23:26:32.935Z,16.30
2022-09-07T23:29:02.761Z,16.30
2022-09-07T23:31:33.436Z,16.30
2022-09-07T23:34:06.142Z,16.30
2022-09-07T23:36:34.767Z,16.20
2022-09-07T23:39:03.263Z,16.20
2022-09-07T23:41:31.342Z,16.20
2022-09-07T23:43:59.485Z,16.10
2022-09-07T23:46:27.555Z,16.10
2022-09-07T23:48:55.656Z,16.10
2022-09-07T23:51:25.116Z,16.10
2022-09-07T23:53:53.977Z,16.00
2022-09-07T23:56:24.381Z,16.00
2022-09-07T23:58:52.776Z,16.00
